»·PEaware :: N1200V KSNA-F70

N1200V :: KSNA-F70

FLIGHT INFORMATION

Flight Status: Arrived
Operator: Privately registered:
United States
More flights under this callsign
Pilot: Ulli W. (2180)
Aircraft: CESSNA 172 SKYHAWK
(C172)
More flights by this aircraft type
Origin: KSNA John Wayne-Orange Co
United States
Destination: F70 French Valley
United States
More flights between these airports :: More routes between these airports
Route: SLI V8 PDZ PDZ092 JESEX
File this flight plan on PilotEdge
Remarks:
Altitude:
(Current/Filed)
5,000ft
Speed:
(Current/Filed)
0kts
Departed: 10-Feb-20 08:20 AM
Arrived: 10-Feb-20 09:06 AM
Distance/Time
Traveled:
37nm/0:46
Distance/Time
To Go:
Arrived

Flight Plot

Page will automatically refresh every two minutes.

Flight plan parsing failed; only flown route is shown


Map Options




Map Legend


Flown Route
Filed Route
Departure Airport
Arrival Airport
Navaid (VOR, NDB)
Fix

Horizontal Profiles

Position Reports

Time Latitude Longitude Heading Altitude Ground
Speed
10-Feb-20 08:13 33.673742 -117.872415 208 60ft 0kts
10-Feb-20 08:14 33.673742 -117.872415 208 60ft 0kts
10-Feb-20 08:15 33.676926 -117.869532 27 60ft 23kts
10-Feb-20 08:16 33.681228 -117.866473 114 60ft 1kts
10-Feb-20 08:17 33.681228 -117.866474 114 60ft 0kts
10-Feb-20 08:18 33.681217 -117.866445 113 60ft 4kts
10-Feb-20 08:19 33.671047 -117.873966 230 479ft 68kts
10-Feb-20 08:20 33.655887 -117.895539 230 1279ft 99kts
10-Feb-20 08:21 33.636909 -117.922245 230 2091ft 111kts
10-Feb-20 08:22 33.617513 -117.949265 230 3052ft 100kts
10-Feb-20 08:23 33.616811 -117.972613 331 4047ft 77kts
10-Feb-20 08:24 33.633051 -117.987144 331 4890ft 81kts
10-Feb-20 08:25 33.658053 -118.008098 327 4908ft 119kts
10-Feb-20 08:26 33.687365 -118.021562 355 4905ft 118kts
10-Feb-20 08:27 33.719574 -118.030868 345 4902ft 119kts
10-Feb-20 08:28 33.751131 -118.043465 344 4902ft 120kts
10-Feb-20 08:29 33.781706 -118.040337 42 4904ft 120kts
10-Feb-20 08:30 33.796981 -118.003620 65 4906ft 125kts
10-Feb-20 08:31 33.807763 -117.963036 67 4906ft 127kts
10-Feb-20 08:32 33.818435 -117.921832 66 4906ft 129kts
10-Feb-20 08:33 33.829162 -117.880269 66 4902ft 130kts
10-Feb-20 08:34 33.839979 -117.838363 66 4901ft 131kts
10-Feb-20 08:35 33.850624 -117.797077 72 4897ft 120kts
10-Feb-20 08:36 33.860291 -117.759453 71 4897ft 115kts
10-Feb-20 08:37 33.869889 -117.722581 70 4895ft 114kts
10-Feb-20 08:38 33.879079 -117.686836 70 4967ft 110kts
10-Feb-20 08:39 33.886995 -117.652795 66 4967ft 116kts
10-Feb-20 08:40 33.896879 -117.617065 68 4962ft 110kts
10-Feb-20 08:41 33.905867 -117.582101 68 4961ft 108kts
10-Feb-20 08:42 33.914741 -117.547350 68 4959ft 108kts
10-Feb-20 08:43 33.914379 -117.510755 98 4968ft 117kts
10-Feb-20 08:44 33.904435 -117.472967 95 4965ft 119kts
10-Feb-20 08:45 33.894692 -117.434039 97 4965ft 124kts
10-Feb-20 08:46 33.884049 -117.393748 98 4964ft 126kts
10-Feb-20 08:47 33.873158 -117.352506 97 4951ft 131kts
10-Feb-20 08:48 33.862148 -117.310711 99 5002ft 132kts
10-Feb-20 08:49 33.850896 -117.268338 101 4999ft 133kts
10-Feb-20 08:50 33.840867 -117.225658 97 4846ft 127kts
10-Feb-20 08:51 33.833053 -117.185661 96 4590ft 112kts
10-Feb-20 08:52 33.826237 -117.150101 97 4591ft 110kts
10-Feb-20 08:53 33.819106 -117.113225 98 4590ft 114kts
10-Feb-20 08:54 33.810916 -117.076256 125 4579ft 119kts
10-Feb-20 08:55 33.778871 -117.073447 194 4180ft 121kts
10-Feb-20 08:56 33.746311 -117.082837 193 3805ft 116kts
10-Feb-20 08:57 33.717078 -117.090312 191 3789ft 101kts
10-Feb-20 08:58 33.687673 -117.097930 191 3448ft 109kts
10-Feb-20 08:59 33.656678 -117.106174 193 2908ft 116kts
10-Feb-20 09:00 33.626173 -117.113925 192 2586ft 101kts
10-Feb-20 09:01 33.600287 -117.116085 173 2532ft 92kts
10-Feb-20 09:02 33.575122 -117.116211 182 2366ft 90kts
10-Feb-20 09:03 33.550514 -117.117352 180 2074ft 74kts
10-Feb-20 09:04 33.554238 -117.129576 325 1703ft 62kts
10-Feb-20 09:05 33.570511 -117.129462 12 1354ft 27kts
10-Feb-20 09:06 33.574501 -117.129638 274 1354ft 9kts

Navigation Log

Ident Type
Flight plan parsing failed, navigation log unavailable